createdAt,value
2019-02-20T00:00:30.402Z,1012.16
2019-02-20T00:01:30.381Z,1012.16
2019-02-20T00:02:30.371Z,1012.20
2019-02-20T00:03:30.371Z,1012.22
2019-02-20T00:04:30.346Z,1012.24
2019-02-20T00:05:30.349Z,1012.26
2019-02-20T00:06:30.327Z,1012.21
2019-02-20T00:07:30.316Z,1012.27
2019-02-20T00:08:30.300Z,1012.23
2019-02-20T00:09:30.295Z,1012.28
2019-02-20T00:10:30.295Z,1012.26
2019-02-20T00:11:30.269Z,1012.29
2019-02-20T00:12:30.267Z,1012.28
2019-02-20T00:13:30.247Z,1012.25
2019-02-20T00:14:30.233Z,1012.23
2019-02-20T00:15:30.259Z,1012.23
2019-02-20T00:16:30.227Z,1012.22
2019-02-20T00:17:30.202Z,1012.23
2019-02-20T00:18:30.192Z,1012.18
2019-02-20T00:19:30.183Z,1012.24
2019-02-20T00:20:30.169Z,1012.25
2019-02-20T00:21:30.169Z,1012.26
2019-02-20T00:22:30.146Z,1012.33
2019-02-20T00:23:30.135Z,1012.34
2019-02-20T00:24:30.123Z,1012.32
2019-02-20T00:25:30.114Z,1012.34
2019-02-20T00:26:30.138Z,1012.30
2019-02-20T00:27:30.092Z,1012.31
2019-02-20T00:28:30.092Z,1012.27
2019-02-20T00:29:30.082Z,1012.33
2019-02-20T00:30:30.062Z,1012.32
2019-02-20T00:31:30.066Z,1012.31
2019-02-20T00:32:30.035Z,1012.33
2019-02-20T00:33:30.026Z,1012.35
2019-02-20T00:34:30.016Z,1012.34
2019-02-20T00:35:30.004Z,1012.31
2019-02-20T00:36:30.006Z,1012.32
2019-02-20T00:37:29.981Z,1012.30
2019-02-20T00:38:29.969Z,1012.33
2019-02-20T00:39:29.961Z,1012.31
2019-02-20T00:40:29.948Z,1012.30
2019-02-20T00:41:29.948Z,1012.30
2019-02-20T00:42:29.933Z,1012.38
2019-02-20T00:43:29.918Z,1012.34
2019-02-20T00:44:29.903Z,1012.37
2019-02-20T00:45:29.897Z,1012.36
2019-02-20T00:46:29.893Z,1012.35
2019-02-20T00:47:29.876Z,1012.36
2019-02-20T00:48:29.881Z,1012.39
2019-02-20T00:49:29.865Z,1012.30
2019-02-20T00:50:29.839Z,1012.34
2019-02-20T00:51:29.846Z,1012.35
2019-02-20T00:52:29.816Z,1012.36
2019-02-20T00:53:29.805Z,1012.32
2019-02-20T00:54:29.792Z,1012.35
2019-02-20T00:55:29.792Z,1012.33
2019-02-20T00:56:29.782Z,1012.34
2019-02-20T00:57:29.763Z,1012.32
2019-02-20T00:58:29.753Z,1012.36
2019-02-20T00:59:29.737Z,1012.38
2019-02-20T01:00:29.731Z,1012.39
2019-02-20T01:01:29.730Z,1012.38
2019-02-20T01:02:29.705Z,1012.34
2019-02-20T01:03:29.691Z,1012.38
2019-02-20T01:04:29.679Z,1012.36
2019-02-20T01:05:29.670Z,1012.36
2019-02-20T01:06:29.673Z,1012.37
2019-02-20T01:07:29.647Z,1012.38
2019-02-20T01:08:29.637Z,1012.42
2019-02-20T01:09:29.626Z,1012.37
2019-02-20T01:10:29.614Z,1012.42
2019-02-20T01:11:29.615Z,1012.44
2019-02-20T01:12:29.606Z,1012.43
2019-02-20T01:13:29.582Z,1012.42
2019-02-20T01:14:29.574Z,1012.44
2019-02-20T01:15:29.560Z,1012.48
2019-02-20T01:16:29.560Z,1012.45
2019-02-20T01:17:29.540Z,1012.47
2019-02-20T01:18:29.525Z,1012.49
2019-02-20T01:19:29.518Z,1012.46
2019-02-20T01:20:29.503Z,1012.47
2019-02-20T01:21:29.503Z,1012.47
2019-02-20T01:22:29.490Z,1012.42
2019-02-20T01:23:29.472Z,1012.42
2019-02-20T01:24:29.460Z,1012.42
2019-02-20T01:25:29.449Z,1012.40
2019-02-20T01:26:29.448Z,1012.38
2019-02-20T01:27:29.427Z,1012.37
2019-02-20T01:28:29.415Z,1012.36
2019-02-20T01:29:29.404Z,1012.35
2019-02-20T01:30:29.392Z,1012.34
2019-02-20T01:31:29.394Z,1012.32
2019-02-20T01:32:29.387Z,1012.34
2019-02-20T01:33:29.361Z,1012.37
2019-02-20T01:34:29.353Z,1012.27
2019-02-20T01:35:29.396Z,1012.36
2019-02-20T01:36:29.338Z,1012.34
2019-02-20T01:37:29.314Z,1012.34
2019-02-20T01:38:29.304Z,1012.34
2019-02-20T01:39:29.293Z,1012.33
2019-02-20T01:40:29.283Z,1012.33
2019-02-20T01:41:29.297Z,1012.33
2019-02-20T01:42:29.286Z,1012.33
2019-02-20T01:43:29.249Z,1012.30
2019-02-20T01:44:29.244Z,1012.30
2019-02-20T01:45:29.227Z,1012.29
2019-02-20T01:46:29.215Z,1012.30
2019-02-20T01:47:29.217Z,1012.33
2019-02-20T01:48:29.193Z,1012.30
2019-02-20T01:49:29.182Z,1012.30
2019-02-20T01:50:29.182Z,1012.30
2019-02-20T01:51:29.160Z,1012.32
2019-02-20T01:52:29.159Z,1012.33
2019-02-20T01:53:29.138Z,1012.37
2019-02-20T01:54:29.126Z,1012.39
2019-02-20T01:55:29.116Z,1012.39
2019-02-20T01:56:29.107Z,1012.39
2019-02-20T01:57:29.119Z,1012.38
2019-02-20T01:58:29.106Z,1012.40
2019-02-20T01:59:29.075Z,1012.41
2019-02-20T02:00:29.064Z,1012.42
2019-02-20T02:01:29.050Z,1012.42
2019-02-20T02:02:29.052Z,1012.37
2019-02-20T02:03:29.029Z,1012.42
2019-02-20T02:04:29.016Z,1012.38
2019-02-20T02:05:29.013Z,1012.39
2019-02-20T02:06:28.996Z,1012.37
2019-02-20T02:07:28.998Z,1012.37
2019-02-20T02:08:29.002Z,1012.34
2019-02-20T02:09:28.961Z,1012.31
2019-02-20T02:10:28.950Z,1012.30
2019-02-20T02:11:28.938Z,1012.31
2019-02-20T02:12:28.940Z,1012.32
2019-02-20T02:13:28.926Z,1012.31
2019-02-20T02:14:28.941Z,1012.32
2019-02-20T02:15:28.894Z,1012.36
2019-02-20T02:16:28.884Z,1012.38
2019-02-20T02:17:28.884Z,1012.36
2019-02-20T02:18:28.862Z,1012.33
2019-02-20T02:19:28.856Z,1012.34
2019-02-20T02:20:28.844Z,1012.32
2019-02-20T02:21:28.845Z,1012.32
2019-02-20T02:22:28.829Z,1012.32
2019-02-20T02:23:28.807Z,1012.35
2019-02-20T02:24:28.798Z,1012.35
2019-02-20T02:25:28.803Z,1012.37
2019-02-20T02:26:28.774Z,1012.35
2019-02-20T02:27:28.774Z,1012.36
2019-02-20T02:28:28.757Z,1012.38
2019-02-20T02:29:28.739Z,1012.39
2019-02-20T02:30:28.731Z,1012.33
2019-02-20T02:31:28.733Z,1012.34
2019-02-20T02:32:28.718Z,1012.33
2019-02-20T02:33:28.701Z,1012.32
2019-02-20T02:34:28.701Z,1012.25
2019-02-20T02:35:28.673Z,1012.24
2019-02-20T02:36:28.666Z,1012.18
2019-02-20T02:37:28.679Z,1012.17
2019-02-20T02:38:28.648Z,1012.16
2019-02-20T02:39:28.630Z,1012.12
2019-02-20T02:40:28.618Z,1012.09
2019-02-20T02:41:28.633Z,1012.07
2019-02-20T02:42:28.598Z,1012.10
2019-02-20T02:43:28.600Z,1012.08
2019-02-20T02:44:28.595Z,1012.12
2019-02-20T02:45:28.563Z,1012.16
2019-02-20T02:46:28.552Z,1012.14
2019-02-20T02:47:28.547Z,1012.17
2019-02-20T02:48:28.545Z,1012.14
2019-02-20T02:49:28.524Z,1012.16
2019-02-20T02:50:28.508Z,1012.15
2019-02-20T02:51:28.496Z,1012.13
2019-02-20T02:52:28.486Z,1012.09
2019-02-20T02:53:30.928Z,1012.12
2019-02-20T02:54:28.471Z,1012.12
2019-02-20T02:55:28.453Z,1012.10
2019-02-20T02:56:28.441Z,1012.10
2019-02-20T02:57:28.433Z,1012.08
2019-02-20T02:58:28.434Z,1012.10
2019-02-20T02:59:28.424Z,1012.08
2019-02-20T03:00:28.398Z,1012.09
2019-02-20T03:01:28.386Z,1012.07
2019-02-20T03:02:28.376Z,1012.09
2019-02-20T03:03:28.380Z,1012.07
2019-02-20T03:04:28.356Z,1012.08
2019-02-20T03:05:28.353Z,1012.06
2019-02-20T03:06:28.332Z,1012.08
2019-02-20T03:07:28.335Z,1012.07
2019-02-20T03:08:28.323Z,1012.07
2019-02-20T03:09:28.298Z,1012.05
2019-02-20T03:10:28.289Z,1012.05
2019-02-20T03:11:28.277Z,1012.04
2019-02-20T03:12:28.265Z,1012.06
2019-02-20T03:13:28.269Z,1012.03
2019-02-20T03:14:28.246Z,1012.03
2019-02-20T03:15:28.234Z,1012.09
2019-02-20T03:16:28.220Z,1012.10
2019-02-20T03:17:28.242Z,1012.10
2019-02-20T03:18:28.209Z,1012.12
2019-02-20T03:19:28.190Z,1012.16
2019-02-20T03:20:28.178Z,1012.13
2019-02-20T03:21:28.165Z,1012.12
2019-02-20T03:22:28.154Z,1012.12
2019-02-20T03:23:28.156Z,1012.14
2019-02-20T03:24:28.140Z,1012.12
2019-02-20T03:25:28.122Z,1012.13
2019-02-20T03:26:28.113Z,1012.11
2019-02-20T03:27:28.102Z,1012.11
2019-02-20T03:28:28.100Z,1012.10
2019-02-20T03:29:28.078Z,1012.13
2019-02-20T03:30:28.080Z,1012.12
2019-02-20T03:31:28.084Z,1012.11
2019-02-20T03:32:28.047Z,1012.13
2019-02-20T03:33:28.045Z,1012.14
2019-02-20T03:34:28.023Z,1012.11
2019-02-20T03:35:28.013Z,1012.15
2019-02-20T03:36:28.000Z,1012.15
2019-02-20T03:37:27.991Z,1012.18
2019-02-20T03:38:30.575Z,1012.16
2019-02-20T03:39:27.970Z,1012.15
2019-02-20T03:40:27.980Z,1012.18
2019-02-20T03:41:27.945Z,1012.17
2019-02-20T03:42:27.936Z,1012.18
2019-02-20T03:43:27.938Z,1012.17
2019-02-20T03:44:27.912Z,1012.15
2019-02-20T03:45:27.906Z,1012.10
2019-02-20T03:46:27.890Z,1012.12
2019-02-20T03:47:27.879Z,1012.12
2019-02-20T03:48:27.902Z,1012.14
2019-02-20T03:49:27.861Z,1012.15
2019-02-20T03:50:27.848Z,1012.15
2019-02-20T03:51:27.834Z,1012.16
2019-02-20T03:52:27.823Z,1012.20
2019-02-20T03:53:27.819Z,1012.18
2019-02-20T03:54:27.814Z,1012.20
2019-02-20T03:55:27.790Z,1012.21
2019-02-20T03:56:27.797Z,1012.22
2019-02-20T03:57:27.768Z,1012.22
2019-02-20T03:58:27.760Z,1012.21
2019-02-20T03:59:27.757Z,1012.25
2019-02-20T04:00:27.737Z,1012.19
2019-02-20T04:01:27.728Z,1012.22
2019-02-20T04:02:27.712Z,1012.23
2019-02-20T04:03:27.726Z,1012.22
2019-02-20T04:04:27.703Z,1012.22
2019-02-20T04:05:27.679Z,1012.24
2019-02-20T04:06:27.669Z,1012.26
2019-02-20T04:07:27.662Z,1012.25
2019-02-20T04:08:27.650Z,1012.25
2019-02-20T04:09:27.648Z,1012.23
2019-02-20T04:10:27.625Z,1012.20
2019-02-20T04:11:27.614Z,1012.25
2019-02-20T04:12:27.611Z,1012.25
2019-02-20T04:13:27.592Z,1012.23
2019-02-20T04:14:27.606Z,1012.22
2019-02-20T04:15:27.570Z,1012.23
2019-02-20T04:16:27.569Z,1012.21
2019-02-20T04:17:27.553Z,1012.22
2019-02-20T04:18:27.548Z,1012.18
2019-02-20T04:19:27.538Z,1012.22
2019-02-20T04:20:27.514Z,1012.22
2019-02-20T04:21:27.502Z,1012.16
2019-02-20T04:22:27.494Z,1012.18
2019-02-20T04:23:27.482Z,1012.20
2019-02-20T04:24:27.485Z,1012.18
2019-02-20T04:25:27.461Z,1012.17
2019-02-20T04:26:27.471Z,1012.17
2019-02-20T04:27:27.451Z,1012.16
2019-02-20T04:28:27.426Z,1012.17
2019-02-20T04:29:27.440Z,1012.16
2019-02-20T04:30:27.416Z,1012.15
2019-02-20T04:31:27.399Z,1012.18
2019-02-20T04:32:27.382Z,1012.14
2019-02-20T04:33:27.370Z,1012.12
2019-02-20T04:34:27.372Z,1012.16
2019-02-20T04:35:27.351Z,1012.14
2019-02-20T04:36:27.337Z,1012.15
2019-02-20T04:37:27.328Z,1012.12
2019-02-20T04:38:27.328Z,1012.15
2019-02-20T04:39:27.335Z,1012.14
2019-02-20T04:40:27.294Z,1012.17
2019-02-20T04:41:27.286Z,1012.17
2019-02-20T04:42:27.276Z,1012.19
2019-02-20T04:43:27.262Z,1012.19
2019-02-20T04:44:27.260Z,1012.17
2019-02-20T04:45:27.257Z,1012.23
2019-02-20T04:46:27.229Z,1012.18
2019-02-20T04:47:27.216Z,1012.20
2019-02-20T04:48:27.219Z,1012.20
2019-02-20T04:49:27.224Z,1012.19
2019-02-20T04:50:27.184Z,1012.21
2019-02-20T04:51:27.173Z,1012.19
2019-02-20T04:52:27.162Z,1012.22
2019-02-20T04:53:27.152Z,1012.21
2019-02-20T04:54:27.181Z,1012.18
2019-02-20T04:55:27.127Z,1012.22
2019-02-20T04:56:27.118Z,1012.22
2019-02-20T04:57:27.106Z,1012.21
2019-02-20T04:58:27.096Z,1012.20
2019-02-20T04:59:27.084Z,1012.23
2019-02-20T05:00:27.086Z,1012.23
2019-02-20T05:01:27.063Z,1012.22
2019-02-20T05:02:27.051Z,1012.25
2019-02-20T05:03:27.039Z,1012.22
2019-02-20T05:04:27.030Z,1012.22
2019-02-20T05:05:27.040Z,1012.23
2019-02-20T05:06:27.006Z,1012.25
2019-02-20T05:07:26.999Z,1012.24
2019-02-20T05:08:26.984Z,1012.19
2019-02-20T05:09:26.974Z,1012.22
2019-02-20T05:10:26.975Z,1012.18
2019-02-20T05:11:27.023Z,1012.16
2019-02-20T05:12:26.954Z,1012.20
2019-02-20T05:13:26.929Z,1012.17
2019-02-20T05:14:26.950Z,1012.19
2019-02-20T05:15:26.925Z,1012.18
2019-02-20T05:16:26.897Z,1012.19
2019-02-20T05:17:26.886Z,1012.19
2019-02-20T05:18:26.875Z,1012.22
2019-02-20T05:19:26.862Z,1012.24
2019-02-20T05:20:26.863Z,1012.18
2019-02-20T05:21:26.848Z,1012.16
2019-02-20T05:22:26.830Z,1012.16
2019-02-20T05:23:26.819Z,1012.18
2019-02-20T05:24:26.808Z,1012.20
2019-02-20T05:25:26.820Z,1012.18
2019-02-20T05:26:26.804Z,1012.14
2019-02-20T05:27:26.776Z,1012.12
2019-02-20T05:28:26.769Z,1012.11
2019-02-20T05:29:26.752Z,1012.10
2019-02-20T05:30:26.754Z,1012.11
2019-02-20T05:31:26.729Z,1012.10
2019-02-20T05:32:26.719Z,1012.16
2019-02-20T05:33:26.710Z,1012.12
2019-02-20T05:34:26.697Z,1012.13
2019-02-20T05:35:26.714Z,1012.12
2019-02-20T05:36:26.682Z,1012.14
2019-02-20T05:37:26.665Z,1012.16
2019-02-20T05:38:26.653Z,1012.16
2019-02-20T05:39:26.640Z,1012.14
2019-02-20T05:40:26.656Z,1012.16
2019-02-20T05:41:26.631Z,1012.19
2019-02-20T05:42:26.609Z,1012.18
2019-02-20T05:43:26.597Z,1012.15
2019-02-20T05:44:26.587Z,1012.17
2019-02-20T05:45:26.613Z,1012.20
2019-02-20T05:46:26.568Z,1012.16
2019-02-20T05:47:26.556Z,1012.15
2019-02-20T05:48:26.541Z,1012.18
2019-02-20T05:49:26.531Z,1012.21
2019-02-20T05:50:26.542Z,1012.23
2019-02-20T05:51:26.519Z,1012.20
2019-02-20T05:52:26.573Z,1012.24
2019-02-20T05:53:26.486Z,1012.24
2019-02-20T05:54:34.216Z,1012.21
2019-02-20T05:55:27.477Z,1012.20
2019-02-20T05:56:26.466Z,1012.24
2019-02-20T05:57:26.462Z,1012.21
2019-02-20T05:58:26.444Z,1012.20
2019-02-20T05:59:26.419Z,1012.20
2019-02-20T06:00:26.421Z,1012.22
2019-02-20T06:01:26.404Z,1012.26
2019-02-20T06:02:26.395Z,1012.25
2019-02-20T06:03:26.377Z,1012.23
2019-02-20T06:04:26.366Z,1012.30
2019-02-20T06:05:26.365Z,1012.30
2019-02-20T06:06:26.342Z,1012.26
2019-02-20T06:07:26.336Z,1012.29
2019-02-20T06:08:26.323Z,1012.33
2019-02-20T06:09:26.313Z,1012.36
2019-02-20T06:10:26.310Z,1012.33
2019-02-20T06:11:26.305Z,1012.35
2019-02-20T06:12:26.276Z,1012.39
2019-02-20T06:13:26.266Z,1012.40
2019-02-20T06:14:26.264Z,1012.42
2019-02-20T06:15:26.310Z,1012.44
2019-02-20T06:16:26.234Z,1012.41
2019-02-20T06:17:26.222Z,1012.41
2019-02-20T06:18:26.212Z,1012.42
2019-02-20T06:19:26.205Z,1012.44
2019-02-20T06:20:26.218Z,1012.43
2019-02-20T06:21:26.198Z,1012.45
2019-02-20T06:22:26.184Z,1012.47
2019-02-20T06:23:26.159Z,1012.49
2019-02-20T06:24:26.164Z,1012.51
2019-02-20T06:25:26.140Z,1012.49
2019-02-20T06:26:26.163Z,1012.51
2019-02-20T06:27:26.118Z,1012.52
2019-02-20T06:28:26.111Z,1012.54
2019-02-20T06:29:26.101Z,1012.57
2019-02-20T06:30:26.093Z,1012.61
2019-02-20T06:31:26.096Z,1012.61
2019-02-20T06:32:26.060Z,1012.61
2019-02-20T06:33:26.049Z,1012.65
2019-02-20T06:34:26.165Z,1012.65
2019-02-20T06:35:26.058Z,1012.65
2019-02-20T06:36:26.028Z,1012.65
2019-02-20T06:37:26.004Z,1012.63
2019-02-20T06:38:26.002Z,1012.66
2019-02-20T06:39:25.990Z,1012.66
2019-02-20T06:40:25.980Z,1012.67
2019-02-20T06:41:25.988Z,1012.70
2019-02-20T06:42:25.983Z,1012.69
2019-02-20T06:43:25.969Z,1012.72
2019-02-20T06:44:25.971Z,1012.78
2019-02-20T06:45:25.917Z,1012.72
2019-02-20T06:46:25.941Z,1012.78
2019-02-20T06:47:25.894Z,1012.74
2019-02-20T06:48:25.892Z,1012.76
2019-02-20T06:49:25.876Z,1012.83
2019-02-20T06:50:25.864Z,1012.85
2019-02-20T06:51:25.866Z,1012.86
2019-02-20T06:52:25.878Z,1012.85
2019-02-20T06:53:25.842Z,1012.90
2019-02-20T06:54:25.843Z,1012.94
2019-02-20T06:55:25.804Z,1012.88
2019-02-20T06:56:25.871Z,1012.89
2019-02-20T06:57:25.831Z,1012.90
2019-02-20T06:58:25.774Z,1012.90
2019-02-20T06:59:25.763Z,1012.91
2019-02-20T07:00:25.750Z,1012.95
2019-02-20T07:01:25.804Z,1012.92
2019-02-20T07:02:25.733Z,1012.93
2019-02-20T07:03:25.719Z,1012.96
2019-02-20T07:04:25.713Z,1012.98
2019-02-20T07:05:25.704Z,1012.97
2019-02-20T07:06:25.695Z,1012.99
2019-02-20T07:07:25.685Z,1012.98
2019-02-20T07:08:25.664Z,1013.01
2019-02-20T07:09:25.654Z,1012.98
2019-02-20T07:10:25.654Z,1012.99
2019-02-20T07:11:25.650Z,1012.97
2019-02-20T07:12:25.620Z,1013.01
2019-02-20T07:13:25.612Z,1013.00
2019-02-20T07:14:25.601Z,1013.00
2019-02-20T07:15:25.588Z,1013.02
2019-02-20T07:16:25.590Z,1013.02
2019-02-20T07:17:25.585Z,1013.02
2019-02-20T07:18:25.553Z,1013.03
2019-02-20T07:19:25.572Z,1013.08
2019-02-20T07:20:25.547Z,1013.06
2019-02-20T07:21:25.551Z,1013.07
2019-02-20T07:22:25.513Z,1013.06
2019-02-20T07:23:25.508Z,1013.07
2019-02-20T07:24:25.488Z,1013.06
2019-02-20T07:25:25.474Z,1013.09
2019-02-20T07:26:25.477Z,1013.09
2019-02-20T07:27:25.456Z,1013.14
2019-02-20T07:28:25.443Z,1013.14
2019-02-20T07:29:25.433Z,1013.15
2019-02-20T07:30:25.444Z,1013.16
2019-02-20T07:31:25.430Z,1013.12
2019-02-20T07:32:25.401Z,1013.14
2019-02-20T07:33:25.387Z,1013.14
2019-02-20T07:34:25.387Z,1013.18
2019-02-20T07:35:25.367Z,1013.16
2019-02-20T07:36:25.357Z,1013.22
2019-02-20T07:37:25.368Z,1013.20
2019-02-20T07:38:25.331Z,1013.22
2019-02-20T07:39:25.325Z,1013.20
2019-02-20T07:40:25.341Z,1013.24
2019-02-20T07:41:25.301Z,1013.25
2019-02-20T07:42:25.304Z,1013.25
2019-02-20T07:43:25.292Z,1013.28
2019-02-20T07:44:25.269Z,1013.29
2019-02-20T07:45:25.260Z,1013.30
2019-02-20T07:46:25.252Z,1013.33
2019-02-20T07:47:25.247Z,1013.35
2019-02-20T07:48:25.223Z,1013.38
2019-02-20T07:49:25.217Z,1013.40
2019-02-20T07:50:25.202Z,1013.41
2019-02-20T07:51:25.201Z,1013.46
2019-02-20T07:52:25.212Z,1013.47
2019-02-20T07:53:25.175Z,1013.45
2019-02-20T07:54:25.177Z,1013.50
2019-02-20T07:55:25.152Z,1013.47
2019-02-20T07:56:25.152Z,1013.49
2019-02-20T07:57:25.154Z,1013.51
2019-02-20T07:58:25.113Z,1013.49
2019-02-20T07:59:25.106Z,1013.53
2019-02-20T08:00:25.100Z,1013.57
2019-02-20T08:01:25.092Z,1013.57
2019-02-20T08:02:25.084Z,1013.57
2019-02-20T08:03:25.127Z,1013.54
2019-02-20T08:04:25.045Z,1013.61
2019-02-20T08:05:25.039Z,1013.59
2019-02-20T08:06:25.032Z,1013.59
2019-02-20T08:07:25.024Z,1013.62
2019-02-20T08:08:25.004Z,1013.63
2019-02-20T08:09:24.993Z,1013.65
2019-02-20T08:10:24.981Z,1013.67
2019-02-20T08:11:24.974Z,1013.71
2019-02-20T08:12:24.976Z,1013.68
2019-02-20T08:13:24.961Z,1013.68
2019-02-20T08:14:24.945Z,1013.71
2019-02-20T08:15:24.925Z,1013.72
2019-02-20T08:16:24.920Z,1013.76
2019-02-20T08:17:24.919Z,1013.73
2019-02-20T08:18:24.893Z,1013.76
2019-02-20T08:19:24.883Z,1013.72
2019-02-20T08:20:24.875Z,1013.75
2019-02-20T08:21:24.862Z,1013.80
2019-02-20T08:22:24.869Z,1013.79
2019-02-20T08:23:24.842Z,1013.80
2019-02-20T08:24:24.837Z,1013.84
2019-02-20T08:25:24.822Z,1013.86
2019-02-20T08:26:24.827Z,1013.88
2019-02-20T08:27:24.808Z,1013.90
2019-02-20T08:28:24.783Z,1013.85
2019-02-20T08:29:24.792Z,1013.84
2019-02-20T08:30:24.769Z,1013.85
2019-02-20T08:31:24.752Z,1013.87
2019-02-20T08:32:24.756Z,1013.87
2019-02-20T08:33:24.731Z,1013.93
2019-02-20T08:34:24.719Z,1013.89
2019-02-20T08:35:24.705Z,1013.95
2019-02-20T08:36:24.706Z,1013.90
2019-02-20T08:37:24.720Z,1013.95
2019-02-20T08:38:24.673Z,1013.88
2019-02-20T08:39:24.659Z,1013.99
2019-02-20T08:40:24.653Z,1013.93
2019-02-20T08:41:24.644Z,1013.95
2019-02-20T08:42:24.627Z,1013.96
2019-02-20T08:43:24.631Z,1013.95
2019-02-20T08:44:24.605Z,1013.97
2019-02-20T08:45:24.593Z,1013.97
2019-02-20T08:46:24.689Z,1013.95
2019-02-20T08:47:24.580Z,1013.94
2019-02-20T08:48:26.486Z,1013.95
2019-02-20T08:49:24.563Z,1013.94
2019-02-20T08:50:24.539Z,1013.96
2019-02-20T08:51:24.526Z,1013.91
2019-02-20T08:52:24.515Z,1013.94
2019-02-20T08:53:24.520Z,1014.01
2019-02-20T08:54:24.498Z,1013.96
2019-02-20T08:55:31.783Z,1013.98
2019-02-20T08:56:25.477Z,1014.02
2019-02-20T08:57:24.472Z,1014.01
2019-02-20T08:58:24.472Z,1013.99
2019-02-20T08:59:24.442Z,1014.01
2019-02-20T09:00:24.442Z,1014.01
2019-02-20T09:01:24.416Z,1014.06
2019-02-20T09:02:24.406Z,1014.04
2019-02-20T09:03:24.412Z,1014.07
2019-02-20T09:04:24.383Z,1014.09
2019-02-20T09:05:24.376Z,1014.12
2019-02-20T09:06:24.367Z,1014.08
2019-02-20T09:07:24.356Z,1014.13
2019-02-20T09:08:24.361Z,1014.11
2019-02-20T09:09:24.352Z,1014.10
2019-02-20T09:10:24.317Z,1014.13
2019-02-20T09:11:24.310Z,1014.13
2019-02-20T09:12:24.311Z,1014.11
2019-02-20T09:13:24.297Z,1014.10
2019-02-20T09:14:24.281Z,1014.12
2019-02-20T09:15:24.266Z,1014.12
2019-02-20T09:16:24.261Z,1014.18
2019-02-20T09:17:24.281Z,1014.13
2019-02-20T09:18:24.258Z,1014.19
2019-02-20T09:19:24.216Z,1014.19
2019-02-20T09:20:24.208Z,1014.18
2019-02-20T09:21:24.231Z,1014.15
2019-02-20T09:22:24.185Z,1014.17
2019-02-20T09:23:24.193Z,1014.16
2019-02-20T09:24:24.163Z,1014.16
2019-02-20T09:25:24.158Z,1014.22
2019-02-20T09:26:24.143Z,1014.17
2019-02-20T09:27:24.133Z,1014.20
2019-02-20T09:28:24.132Z,1014.19
2019-02-20T09:29:24.134Z,1014.21
2019-02-20T09:30:28.478Z,1014.23
2019-02-20T09:31:25.084Z,1014.22
2019-02-20T09:32:24.091Z,1014.22
2019-02-20T09:33:24.099Z,1014.22
2019-02-20T09:34:24.058Z,1014.27
2019-02-20T09:35:24.059Z,1014.26
2019-02-20T09:36:24.033Z,1014.31
2019-02-20T09:37:24.031Z,1014.29
2019-02-20T09:38:24.008Z,1014.28
2019-02-20T09:39:24.016Z,1014.22
2019-02-20T09:40:23.988Z,1014.28
2019-02-20T09:41:23.975Z,1014.25
2019-02-20T09:42:23.966Z,1014.23
2019-02-20T09:43:23.953Z,1014.24
2019-02-20T09:44:23.959Z,1014.27
2019-02-20T09:45:23.936Z,1014.25
2019-02-20T09:46:23.921Z,1014.29
2019-02-20T09:47:23.908Z,1014.25
2019-02-20T09:48:23.900Z,1014.28
2019-02-20T09:49:23.903Z,1014.32
2019-02-20T09:50:23.877Z,1014.31
2019-02-20T09:51:23.864Z,1014.31
2019-02-20T09:52:23.859Z,1014.33
2019-02-20T09:53:23.847Z,1014.31
2019-02-20T09:54:23.846Z,1014.32
2019-02-20T09:55:23.822Z,1014.35
2019-02-20T09:56:23.817Z,1014.39
2019-02-20T09:57:23.824Z,1014.42
2019-02-20T09:58:23.814Z,1014.39
2019-02-20T09:59:23.789Z,1014.39
2019-02-20T10:00:23.772Z,1014.41
2019-02-20T10:01:23.756Z,1014.39
2019-02-20T10:02:23.749Z,1014.37
2019-02-20T10:03:23.738Z,1014.39
2019-02-20T10:04:23.745Z,1014.37
2019-02-20T10:05:23.709Z,1014.36
2019-02-20T10:06:23.704Z,1014.39
2019-02-20T10:07:23.688Z,1014.41
2019-02-20T10:08:23.702Z,1014.42
2019-02-20T10:09:23.680Z,1014.43
2019-02-20T10:10:23.656Z,1014.45
2019-02-20T10:11:23.698Z,1014.49
2019-02-20T10:12:23.631Z,1014.50
2019-02-20T10:13:23.626Z,1014.46
2019-02-20T10:14:23.642Z,1014.48
2019-02-20T10:15:23.599Z,1014.47
2019-02-20T10:16:23.588Z,1014.48
2019-02-20T10:17:23.579Z,1014.48
2019-02-20T10:18:23.569Z,1014.53
2019-02-20T10:19:23.611Z,1014.51
2019-02-20T10:20:23.592Z,1014.51
2019-02-20T10:21:23.550Z,1014.50
2019-02-20T10:22:23.528Z,1014.51
2019-02-20T10:23:23.516Z,1014.54
2019-02-20T10:24:23.499Z,1014.51
2019-02-20T10:25:23.509Z,1014.55
2019-02-20T10:26:23.486Z,1014.54
2019-02-20T10:27:23.471Z,1014.58
2019-02-20T10:28:23.466Z,1014.57
2019-02-20T10:29:23.443Z,1014.59
2019-02-20T10:30:23.472Z,1014.58
2019-02-20T10:31:23.448Z,1014.57
2019-02-20T10:32:23.411Z,1014.61
2019-02-20T10:33:23.403Z,1014.60
2019-02-20T10:34:23.415Z,1014.61
2019-02-20T10:35:23.402Z,1014.58
2019-02-20T10:36:23.369Z,1014.57
2019-02-20T10:37:23.371Z,1014.64
2019-02-20T10:38:23.349Z,1014.60
2019-02-20T10:39:23.334Z,1014.66
2019-02-20T10:40:23.339Z,1014.69
2019-02-20T10:41:23.311Z,1014.64
2019-02-20T10:42:23.302Z,1014.67
2019-02-20T10:43:23.303Z,1014.64
2019-02-20T10:44:23.294Z,1014.69
2019-02-20T10:45:23.284Z,1014.66
2019-02-20T10:46:23.256Z,1014.67
2019-02-20T10:47:23.248Z,1014.72
2019-02-20T10:48:23.235Z,1014.65
2019-02-20T10:49:23.836Z,1014.64
2019-02-20T10:50:23.240Z,1014.64
2019-02-20T10:51:23.218Z,1014.68
2019-02-20T10:52:23.189Z,1014.70
2019-02-20T10:53:23.187Z,1014.66
2019-02-20T10:54:23.195Z,1014.66
2019-02-20T10:55:23.170Z,1014.68
2019-02-20T10:56:23.166Z,1014.64
2019-02-20T10:57:23.138Z,1014.67
2019-02-20T10:58:23.121Z,1014.66
2019-02-20T10:59:23.116Z,1014.70
2019-02-20T11:00:24.237Z,1014.70
2019-02-20T11:01:23.092Z,1014.70
2019-02-20T11:02:23.092Z,1014.72
2019-02-20T11:03:23.073Z,1014.73
2019-02-20T11:04:23.066Z,1014.72
2019-02-20T11:05:23.070Z,1014.70
2019-02-20T11:06:23.046Z,1014.71
2019-02-20T11:07:23.042Z,1014.72
2019-02-20T11:08:23.025Z,1014.72
2019-02-20T11:09:23.004Z,1014.72
2019-02-20T11:10:24.113Z,1014.70
2019-02-20T11:11:22.978Z,1014.68
2019-02-20T11:12:22.973Z,1014.71
2019-02-20T11:13:22.956Z,1014.68
2019-02-20T11:14:22.948Z,1014.67
2019-02-20T11:15:23.101Z,1014.64
2019-02-20T11:16:22.925Z,1014.68
2019-02-20T11:17:22.958Z,1014.63
2019-02-20T11:18:22.904Z,1014.70
2019-02-20T11:19:22.896Z,1014.67
2019-02-20T11:20:22.909Z,1014.67
2019-02-20T11:21:22.867Z,1014.66
2019-02-20T11:22:22.891Z,1014.64
2019-02-20T11:23:22.855Z,1014.65
2019-02-20T11:24:22.839Z,1014.68
2019-02-20T11:25:22.835Z,1014.65
2019-02-20T11:26:22.836Z,1014.66
2019-02-20T11:27:22.803Z,1014.66
2019-02-20T11:28:27.011Z,1014.63
2019-02-20T11:29:22.792Z,1014.64
2019-02-20T11:30:22.780Z,1014.65
2019-02-20T11:31:22.778Z,1014.65
2019-02-20T11:32:22.753Z,1014.63
2019-02-20T11:33:22.738Z,1014.64
2019-02-20T11:34:22.728Z,1014.64
2019-02-20T11:35:22.712Z,1014.65
2019-02-20T11:36:22.737Z,1014.64
2019-02-20T11:37:22.694Z,1014.62
2019-02-20T11:38:22.680Z,1014.64
2019-02-20T11:39:22.676Z,1014.62
2019-02-20T11:40:22.684Z,1014.66
2019-02-20T11:41:22.669Z,1014.63
2019-02-20T11:42:22.651Z,1014.64
2019-02-20T11:43:22.630Z,1014.64
2019-02-20T11:44:22.615Z,1014.64
2019-02-20T11:45:22.603Z,1014.63
2019-02-20T11:46:22.606Z,1014.66
2019-02-20T11:47:22.581Z,1014.67
2019-02-20T11:48:22.572Z,1014.66
2019-02-20T11:49:22.559Z,1014.64
2019-02-20T11:50:22.552Z,1014.66
2019-02-20T11:51:22.553Z,1014.64
2019-02-20T11:52:22.538Z,1014.62
2019-02-20T11:53:22.539Z,1014.65
2019-02-20T11:54:22.502Z,1014.62
2019-02-20T11:55:22.495Z,1014.64
2019-02-20T11:56:26.535Z,1014.64
2019-02-20T11:57:22.475Z,1014.63
2019-02-20T11:58:22.459Z,1014.63
2019-02-20T11:59:22.456Z,1014.62
2019-02-20T12:00:22.437Z,1014.63
2019-02-20T12:01:22.604Z,1014.64
2019-02-20T12:02:22.414Z,1014.60
2019-02-20T12:03:22.430Z,1014.63
2019-02-20T12:04:22.395Z,1014.62
2019-02-20T12:05:22.380Z,1014.63